createdAt,value
2019-06-10T00:03:14.302Z,99.90
2019-06-10T00:08:21.375Z,99.90
2019-06-10T00:13:28.540Z,99.90
2019-06-10T00:18:42.035Z,99.90
2019-06-10T00:23:44.284Z,99.90
2019-06-10T00:28:51.511Z,99.90
2019-06-10T00:34:01.375Z,99.90
2019-06-10T00:39:08.851Z,99.90
2019-06-10T00:44:17.201Z,99.90
2019-06-10T00:49:24.250Z,99.90
2019-06-10T00:54:31.396Z,99.90
2019-06-10T00:59:38.448Z,99.90
2019-06-10T01:04:46.882Z,99.90
2019-06-10T01:09:54.067Z,99.90
2019-06-10T01:15:01.268Z,99.90
2019-06-10T01:20:10.668Z,99.90
2019-06-10T01:25:18.474Z,99.90
2019-06-10T01:30:27.334Z,99.90
2019-06-10T01:35:34.583Z,99.90
2019-06-10T01:40:42.895Z,99.90
2019-06-10T01:45:51.143Z,99.90
2019-06-10T01:51:01.832Z,99.90
2019-06-10T01:56:10.366Z,99.90
2019-06-10T02:01:33.146Z,99.90
2019-06-10T02:06:40.658Z,99.90
2019-06-10T02:11:47.849Z,99.90
2019-06-10T02:16:55.491Z,99.90
2019-06-10T02:22:02.762Z,99.90
2019-06-10T02:27:12.882Z,99.90
2019-06-10T02:32:30.761Z,99.90
2019-06-10T02:37:32.554Z,99.90
2019-06-10T02:42:43.358Z,99.90
2019-06-10T02:47:48.868Z,99.90
2019-06-10T02:52:55.936Z,99.90
2019-06-10T02:58:03.912Z,99.90
2019-06-10T03:03:14.157Z,99.90
2019-06-10T03:08:22.149Z,99.90
2019-06-10T03:13:29.724Z,99.90
2019-06-10T03:18:36.806Z,99.90
2019-06-10T03:23:44.003Z,99.90
2019-06-10T03:28:52.026Z,99.90
2019-06-10T03:33:59.265Z,99.90
2019-06-10T03:39:08.682Z,99.90
2019-06-10T03:44:16.823Z,99.90
2019-06-10T03:49:26.749Z,99.90
2019-06-10T03:54:33.173Z,99.90
2019-06-10T03:59:42.170Z,99.90
2019-06-10T04:04:49.402Z,99.90
2019-06-10T04:09:56.705Z,98.70
2019-06-10T04:15:03.903Z,98.60
2019-06-10T04:20:13.224Z,97.80
2019-06-10T04:25:23.192Z,96.90
2019-06-10T04:30:32.318Z,97.70
2019-06-10T04:35:38.757Z,96.50
2019-06-10T04:40:45.957Z,97.20
2019-06-10T04:45:53.203Z,95.50
2019-06-10T04:56:18.127Z,96.10
2019-06-10T05:01:27.064Z,95.00
2019-06-10T05:06:34.219Z,95.10
2019-06-10T05:11:43.199Z,94.70
2019-06-10T05:16:50.001Z,92.50
2019-06-10T05:21:57.081Z,91.30
2019-06-10T05:27:04.291Z,91.60
2019-06-10T05:32:13.148Z,90.90
2019-06-10T05:37:23.304Z,89.80
2019-06-10T05:42:33.534Z,94.40
2019-06-10T05:47:39.873Z,90.30
2019-06-10T05:52:47.012Z,92.10
2019-06-10T05:57:54.164Z,91.60
2019-06-10T06:03:02.777Z,93.20
2019-06-10T06:08:12.397Z,93.80
2019-06-10T06:13:18.727Z,93.10
2019-06-10T06:18:25.909Z,92.80
2019-06-10T06:23:33.873Z,93.50
2019-06-10T06:28:43.050Z,93.40
2019-06-10T06:33:52.702Z,94.40
2019-06-10T06:38:59.515Z,93.90
2019-06-10T06:44:06.830Z,95.10
2019-06-10T06:49:15.233Z,94.20
2019-06-10T06:54:23.020Z,96.00
2019-06-10T06:59:33.797Z,96.00
2019-06-10T07:04:40.486Z,95.50
2019-06-10T07:09:52.624Z,96.70
2019-06-10T07:15:01.347Z,96.70
2019-06-10T07:20:12.630Z,95.80
2019-06-10T07:25:19.832Z,96.80
2019-06-10T07:30:41.554Z,96.30
2019-06-10T07:35:47.135Z,96.40
2019-06-10T07:40:54.331Z,92.50
2019-06-10T07:46:03.392Z,90.70
2019-06-10T07:51:13.097Z,87.30
2019-06-10T07:56:19.796Z,92.20
2019-06-10T08:01:26.984Z,89.60
2019-06-10T08:06:35.152Z,92.30
2019-06-10T08:11:46.524Z,91.50
2019-06-10T08:16:53.135Z,88.30
2019-06-10T08:22:02.704Z,86.80
2019-06-10T08:27:09.082Z,89.20
2019-06-10T08:32:16.218Z,91.20
2019-06-10T08:37:23.676Z,93.70
2019-06-10T08:42:32.392Z,94.70
2019-06-10T08:47:39.631Z,91.30
2019-06-10T08:53:03.360Z,86.80
2019-06-10T08:57:55.563Z,90.50
2019-06-10T09:03:04.190Z,83.90
2019-06-10T09:08:13.008Z,80.20
2019-06-10T09:13:22.257Z,83.60
2019-06-10T09:18:28.886Z,87.80
2019-06-10T09:23:35.920Z,89.40
2019-06-10T09:28:47.165Z,90.00
2019-06-10T09:33:56.250Z,83.10
2019-06-10T09:39:03.746Z,77.10
2019-06-10T09:44:12.655Z,71.60
2019-06-10T09:49:22.264Z,68.10
2019-06-10T09:54:30.021Z,66.70
2019-06-10T09:59:37.249Z,66.20
2019-06-10T10:04:58.078Z,66.00
2019-06-10T10:10:05.157Z,66.70
2019-06-10T10:15:26.728Z,67.50
2019-06-10T10:20:22.893Z,66.40
2019-06-10T10:25:33.279Z,63.40
2019-06-10T10:30:44.684Z,63.00
2019-06-10T10:35:50.689Z,61.70
2019-06-10T10:40:59.158Z,61.50
2019-06-10T10:46:06.751Z,60.50
2019-06-10T10:51:13.945Z,59.60
2019-06-10T10:56:22.315Z,60.00
2019-06-10T11:01:29.662Z,59.40
2019-06-10T11:06:37.153Z,60.00
2019-06-10T11:11:45.758Z,60.20
2019-06-10T11:16:56.859Z,60.00
2019-06-10T11:22:03.025Z,60.20
2019-06-10T11:27:12.706Z,59.00
2019-06-10T11:32:19.320Z,58.70
2019-06-10T11:37:26.532Z,58.50
2019-06-10T11:42:33.744Z,58.80
2019-06-10T11:47:42.588Z,59.40
2019-06-10T11:52:53.581Z,61.80
2019-06-10T11:57:59.931Z,62.50
2019-06-10T12:03:07.413Z,60.50
2019-06-10T12:08:14.556Z,59.70
2019-06-10T12:13:22.603Z,59.70
2019-06-10T12:18:29.882Z,58.10
2019-06-10T12:23:37.011Z,58.60
2019-06-10T12:28:44.300Z,57.60
2019-06-10T12:33:55.335Z,56.80
2019-06-10T12:39:07.918Z,57.00
2019-06-10T12:44:15.000Z,56.40
2019-06-10T12:49:24.706Z,55.10
2019-06-10T12:54:32.642Z,55.10
2019-06-10T12:59:39.782Z,54.00
2019-06-10T13:04:47.740Z,55.40
2019-06-10T13:09:57.828Z,54.70
2019-06-10T13:15:08.418Z,53.60
2019-06-10T13:20:15.641Z,51.10
2019-06-10T13:25:22.841Z,50.20
2019-06-10T13:30:29.881Z,52.50
2019-06-10T13:35:36.933Z,56.00
2019-06-10T13:40:44.613Z,57.90
2019-06-10T13:45:53.278Z,60.10
2019-06-10T13:51:03.811Z,61.50
2019-06-10T13:56:31.997Z,64.60
2019-06-10T14:01:21.926Z,65.70
2019-06-10T14:06:39.770Z,66.30
2019-06-10T14:11:35.555Z,69.80
2019-06-10T14:16:42.619Z,69.90
2019-06-10T14:21:49.776Z,66.20
2019-06-10T14:26:56.824Z,66.90
2019-06-10T14:32:05.686Z,66.50
2019-06-10T14:37:15.585Z,67.50
2019-06-10T14:42:23.031Z,63.70
2019-06-10T14:47:32.481Z,60.10
2019-06-10T14:52:39.223Z,58.00
2019-06-10T14:57:46.292Z,54.20
2019-06-10T15:02:54.031Z,53.90
2019-06-10T15:08:03.305Z,54.30
2019-06-10T15:13:10.074Z,57.10
2019-06-10T15:18:18.201Z,58.10
2019-06-10T15:23:25.399Z,58.10
2019-06-10T15:28:32.461Z,56.90
2019-06-10T15:33:39.647Z,55.90
2019-06-10T15:38:46.907Z,55.30
2019-06-10T15:43:53.962Z,53.60
2019-06-10T15:49:02.406Z,53.80
2019-06-10T15:54:13.042Z,55.90
2019-06-10T15:59:19.826Z,57.50
2019-06-10T16:04:29.931Z,58.00
2019-06-10T16:09:36.410Z,58.80
2019-06-10T16:14:43.557Z,59.90
2019-06-10T16:19:53.111Z,61.70
2019-06-10T16:24:59.341Z,63.50
2019-06-10T16:30:07.120Z,64.70
2019-06-10T16:35:15.095Z,67.90
2019-06-10T16:40:24.270Z,68.40
2019-06-10T16:45:33.881Z,75.30
2019-06-10T16:50:42.475Z,77.00
2019-06-10T16:55:48.575Z,83.10
2019-06-10T17:00:55.686Z,87.40
2019-06-10T17:06:02.790Z,92.30
2019-06-10T17:11:12.261Z,94.70
2019-06-10T17:16:20.232Z,96.50
2019-06-10T17:21:30.333Z,97.20
2019-06-10T17:26:38.217Z,98.40
2019-06-10T17:31:45.254Z,99.10
2019-06-10T17:36:53.844Z,99.90
2019-06-10T17:42:01.234Z,99.90
2019-06-10T17:51:35.690Z,99.90
2019-06-10T17:56:42.967Z,99.90
2019-06-10T18:01:52.264Z,99.90
2019-06-10T18:06:59.011Z,99.90
2019-06-10T18:12:06.255Z,99.90
2019-06-10T18:17:13.465Z,99.90
2019-06-10T18:22:22.764Z,99.90
2019-06-10T18:27:31.141Z,99.90
2019-06-10T18:32:38.506Z,99.90
2019-06-10T18:37:45.537Z,99.90
2019-06-10T18:42:52.628Z,99.90
2019-06-10T18:47:59.717Z,99.90
2019-06-10T18:53:06.775Z,99.90
2019-06-10T19:03:53.659Z,99.90
2019-06-10T19:09:03.119Z,99.90
2019-06-10T19:14:12.792Z,99.90
2019-06-10T19:19:19.789Z,99.90
2019-06-10T19:24:27.523Z,99.90
2019-06-10T19:29:45.326Z,99.90
2019-06-10T19:34:48.163Z,99.90
2019-06-10T19:39:54.193Z,99.90
2019-06-10T19:45:03.354Z,99.90
2019-06-10T19:50:12.239Z,99.90
2019-06-10T19:55:19.519Z,99.90
2019-06-10T20:00:26.906Z,99.90
2019-06-10T20:05:34.884Z,99.90
2019-06-10T20:10:42.787Z,99.90
2019-06-10T20:15:52.340Z,99.90
2019-06-10T20:20:59.186Z,99.90
2019-06-10T20:26:06.279Z,99.90
2019-06-10T20:31:13.779Z,99.90
2019-06-10T20:36:23.250Z,99.90
2019-06-10T20:41:29.482Z,99.90
2019-06-10T20:46:36.633Z,99.90
2019-06-10T20:51:57.010Z,99.90
2019-06-10T20:56:53.386Z,99.90
2019-06-10T21:02:03.056Z,99.90
2019-06-10T21:07:12.605Z,99.90
2019-06-10T21:12:22.099Z,99.90
2019-06-10T21:17:28.958Z,99.90
2019-06-10T21:22:36.127Z,99.90
2019-06-10T21:27:45.081Z,99.90
2019-06-10T21:32:54.744Z,99.90
2019-06-10T21:38:01.064Z,99.90
2019-06-10T21:43:08.148Z,99.90
2019-06-10T21:48:15.228Z,99.90
2019-06-10T21:53:22.463Z,99.90
2019-06-10T21:58:32.654Z,99.90
2019-06-10T22:03:39.250Z,99.90
2019-06-10T22:08:47.490Z,99.90
2019-06-10T22:13:56.245Z,99.90
2019-06-10T22:19:04.049Z,99.90
2019-06-10T22:24:12.559Z,99.90
2019-06-10T22:29:19.709Z,99.90
2019-06-10T22:34:26.896Z,99.90
2019-06-10T22:39:33.966Z,99.90
2019-06-10T22:44:42.375Z,99.90
2019-06-10T22:49:50.019Z,99.90
2019-06-10T22:54:58.637Z,99.90
2019-06-10T23:00:07.633Z,99.90
2019-06-10T23:05:17.413Z,99.90
2019-06-10T23:10:24.748Z,99.90
2019-06-10T23:15:32.290Z,99.90
2019-06-10T23:20:39.640Z,99.90
2019-06-10T23:25:46.791Z,99.90
2019-06-10T23:30:57.355Z,99.90
2019-06-10T23:36:04.116Z,99.90
2019-06-10T23:41:12.994Z,99.90
2019-06-10T23:46:22.581Z,99.90
2019-06-10T23:51:28.891Z,99.90
2019-06-10T23:56:36.008Z,99.90
